sensor_id;sensor_type;location;lat;lon;timestamp;P1;durP1;ratioP1;P2;durP2;ratioP2
22435;SDS011;11385;50.822;4.324;2023-07-20T00:01:30;7.72;;;2.60;;
22435;SDS011;11385;50.822;4.324;2023-07-20T00:03:57;12.05;;;2.67;;
22435;SDS011;11385;50.822;4.324;2023-07-20T00:06:24;6.47;;;2.37;;
22435;SDS011;11385;50.822;4.324;2023-07-20T00:08:53;7.35;;;2.47;;
22435;SDS011;11385;50.822;4.324;2023-07-20T00:11:21;5.70;;;2.70;;
22435;SDS011;11385;50.822;4.324;2023-07-20T00:13:52;8.03;;;3.17;;
22435;SDS011;11385;50.822;4.324;2023-07-20T00:16:18;8.83;;;2.33;;
22435;SDS011;11385;50.822;4.324;2023-07-20T00:18:45;8.43;;;2.90;;
22435;SDS011;11385;50.822;4.324;2023-07-20T00:21:12;6.72;;;2.77;;
22435;SDS011;11385;50.822;4.324;2023-07-20T00:23:38;8.73;;;2.85;;
22435;SDS011;11385;50.822;4.324;2023-07-20T00:26:05;7.25;;;2.60;;
22435;SDS011;11385;50.822;4.324;2023-07-20T00:28:32;6.42;;;2.70;;
22435;SDS011;11385;50.822;4.324;2023-07-20T00:30:59;6.83;;;2.33;;
22435;SDS011;11385;50.822;4.324;2023-07-20T00:33:26;5.90;;;2.85;;
22435;SDS011;11385;50.822;4.324;2023-07-20T00:35:53;6.65;;;2.67;;
22435;SDS011;11385;50.822;4.324;2023-07-20T00:38:19;6.45;;;2.50;;
22435;SDS011;11385;50.822;4.324;2023-07-20T00:40:46;10.18;;;3.75;;
22435;SDS011;11385;50.822;4.324;2023-07-20T00:43:14;9.95;;;3.22;;
22435;SDS011;11385;50.822;4.324;2023-07-20T00:45:40;10.45;;;4.65;;
22435;SDS011;11385;50.822;4.324;2023-07-20T00:48:08;7.87;;;2.90;;
22435;SDS011;11385;50.822;4.324;2023-07-20T00:50:35;9.88;;;3.25;;
22435;SDS011;11385;50.822;4.324;2023-07-20T00:53:02;8.03;;;4.35;;
22435;SDS011;11385;50.822;4.324;2023-07-20T00:55:31;8.83;;;3.05;;
22435;SDS011;11385;50.822;4.324;2023-07-20T00:57:58;9.23;;;2.72;;
22435;SDS011;11385;50.822;4.324;2023-07-20T01:00:26;8.15;;;2.77;;
22435;SDS011;11385;50.822;4.324;2023-07-20T01:02:53;11.88;;;3.22;;
22435;SDS011;11385;50.822;4.324;2023-07-20T01:05:20;10.48;;;3.10;;
22435;SDS011;11385;50.822;4.324;2023-07-20T01:07:52;8.20;;;2.90;;
22435;SDS011;11385;50.822;4.324;2023-07-20T01:13:06;8.93;;;3.40;;
22435;SDS011;11385;50.822;4.324;2023-07-20T01:15:35;8.45;;;3.20;;
22435;SDS011;11385;50.822;4.324;2023-07-20T01:18:02;9.08;;;3.27;;
22435;SDS011;11385;50.822;4.324;2023-07-20T01:20:30;10.72;;;3.05;;
22435;SDS011;11385;50.822;4.324;2023-07-20T01:25:55;6.35;;;2.90;;
22435;SDS011;11385;50.822;4.324;2023-07-20T01:28:34;8.33;;;3.20;;
22435;SDS011;11385;50.822;4.324;2023-07-20T01:33:41;9.90;;;3.12;;
22435;SDS011;11385;50.822;4.324;2023-07-20T01:36:08;10.03;;;3.30;;
22435;SDS011;11385;50.822;4.324;2023-07-20T01:38:36;8.13;;;3.12;;
22435;SDS011;11385;50.822;4.324;2023-07-20T01:41:04;8.58;;;3.27;;
22435;SDS011;11385;50.822;4.324;2023-07-20T01:43:32;10.05;;;3.50;;
22435;SDS011;11385;50.822;4.324;2023-07-20T01:45:58;9.68;;;3.52;;
22435;SDS011;11385;50.822;4.324;2023-07-20T01:48:25;8.48;;;3.50;;
22435;SDS011;11385;50.822;4.324;2023-07-20T01:50:51;10.75;;;3.72;;
22435;SDS011;11385;50.822;4.324;2023-07-20T01:53:19;13.88;;;3.70;;
22435;SDS011;11385;50.822;4.324;2023-07-20T01:55:46;10.40;;;3.77;;
22435;SDS011;11385;50.822;4.324;2023-07-20T01:58:13;10.65;;;3.52;;
22435;SDS011;11385;50.822;4.324;2023-07-20T02:00:40;10.00;;;4.03;;
22435;SDS011;11385;50.822;4.324;2023-07-20T02:03:06;9.60;;;3.55;;
22435;SDS011;11385;50.822;4.324;2023-07-20T02:05:33;9.73;;;3.87;;
22435;SDS011;11385;50.822;4.324;2023-07-20T02:08:00;13.85;;;3.77;;
22435;SDS011;11385;50.822;4.324;2023-07-20T02:10:27;9.43;;;4.42;;
22435;SDS011;11385;50.822;4.324;2023-07-20T02:12:53;12.70;;;4.15;;
22435;SDS011;11385;50.822;4.324;2023-07-20T02:15:20;10.53;;;3.50;;
22435;SDS011;11385;50.822;4.324;2023-07-20T02:17:47;9.28;;;3.95;;
22435;SDS011;11385;50.822;4.324;2023-07-20T02:20:13;7.15;;;3.60;;
22435;SDS011;11385;50.822;4.324;2023-07-20T02:22:40;12.33;;;4.25;;
22435;SDS011;11385;50.822;4.324;2023-07-20T02:25:07;11.45;;;4.50;;
22435;SDS011;11385;50.822;4.324;2023-07-20T02:27:34;10.48;;;4.15;;
22435;SDS011;11385;50.822;4.324;2023-07-20T02:30:01;15.40;;;5.20;;
22435;SDS011;11385;50.822;4.324;2023-07-20T02:32:29;16.60;;;4.55;;
22435;SDS011;11385;50.822;4.324;2023-07-20T02:34:56;13.15;;;5.20;;
22435;SDS011;11385;50.822;4.324;2023-07-20T02:37:24;11.08;;;4.80;;
22435;SDS011;11385;50.822;4.324;2023-07-20T02:39:51;14.07;;;5.58;;
22435;SDS011;11385;50.822;4.324;2023-07-20T02:42:17;14.68;;;5.80;;
22435;SDS011;11385;50.822;4.324;2023-07-20T02:44:45;13.00;;;6.00;;
22435;SDS011;11385;50.822;4.324;2023-07-20T02:47:11;14.73;;;6.12;;
22435;SDS011;11385;50.822;4.324;2023-07-20T02:49:38;12.37;;;5.75;;
22435;SDS011;11385;50.822;4.324;2023-07-20T02:52:05;14.05;;;5.70;;
22435;SDS011;11385;50.822;4.324;2023-07-20T02:54:31;16.82;;;6.72;;
22435;SDS011;11385;50.822;4.324;2023-07-20T02:56:58;14.00;;;5.97;;
22435;SDS011;11385;50.822;4.324;2023-07-20T02:59:25;17.17;;;6.47;;
22435;SDS011;11385;50.822;4.324;2023-07-20T03:01:51;17.92;;;6.70;;
22435;SDS011;11385;50.822;4.324;2023-07-20T03:04:19;16.50;;;6.15;;
22435;SDS011;11385;50.822;4.324;2023-07-20T03:06:46;14.07;;;6.70;;
22435;SDS011;11385;50.822;4.324;2023-07-20T03:09:12;16.87;;;7.30;;
22435;SDS011;11385;50.822;4.324;2023-07-20T03:11:39;14.47;;;6.25;;
22435;SDS011;11385;50.822;4.324;2023-07-20T03:14:06;11.83;;;6.75;;
22435;SDS011;11385;50.822;4.324;2023-07-20T03:16:32;16.42;;;6.92;;
22435;SDS011;11385;50.822;4.324;2023-07-20T03:18:59;13.08;;;7.45;;
22435;SDS011;11385;50.822;4.324;2023-07-20T03:21:26;13.65;;;7.50;;
22435;SDS011;11385;50.822;4.324;2023-07-20T03:23:53;13.93;;;7.30;;
22435;SDS011;11385;50.822;4.324;2023-07-20T03:26:19;15.15;;;8.10;;
22435;SDS011;11385;50.822;4.324;2023-07-20T03:28:46;15.20;;;7.45;;
22435;SDS011;11385;50.822;4.324;2023-07-20T03:31:13;18.02;;;7.72;;
22435;SDS011;11385;50.822;4.324;2023-07-20T03:33:40;15.48;;;7.42;;
22435;SDS011;11385;50.822;4.324;2023-07-20T03:36:08;15.20;;;7.50;;
22435;SDS011;11385;50.822;4.324;2023-07-20T03:38:35;17.30;;;8.05;;
22435;SDS011;11385;50.822;4.324;2023-07-20T03:41:02;13.85;;;8.00;;
22435;SDS011;11385;50.822;4.324;2023-07-20T03:43:28;16.07;;;8.05;;
22435;SDS011;11385;50.822;4.324;2023-07-20T03:45:55;15.63;;;8.28;;
22435;SDS011;11385;50.822;4.324;2023-07-20T03:48:23;19.70;;;8.65;;
22435;SDS011;11385;50.822;4.324;2023-07-20T03:50:51;18.70;;;8.50;;
22435;SDS011;11385;50.822;4.324;2023-07-20T03:53:19;17.70;;;8.85;;
22435;SDS011;11385;50.822;4.324;2023-07-20T03:55:47;19.62;;;8.58;;
22435;SDS011;11385;50.822;4.324;2023-07-20T03:58:15;17.77;;;8.50;;
22435;SDS011;11385;50.822;4.324;2023-07-20T04:00:44;15.20;;;8.70;;
22435;SDS011;11385;50.822;4.324;2023-07-20T04:03:12;19.15;;;8.95;;
22435;SDS011;11385;50.822;4.324;2023-07-20T04:05:39;13.13;;;7.75;;
22435;SDS011;11385;50.822;4.324;2023-07-20T04:08:07;16.48;;;8.98;;
22435;SDS011;11385;50.822;4.324;2023-07-20T04:10:34;15.78;;;9.68;;
22435;SDS011;11385;50.822;4.324;2023-07-20T04:13:01;16.48;;;8.43;;
22435;SDS011;11385;50.822;4.324;2023-07-20T04:15:27;20.40;;;9.30;;
22435;SDS011;11385;50.822;4.324;2023-07-20T04:17:54;19.40;;;10.38;;
22435;SDS011;11385;50.822;4.324;2023-07-20T04:20:22;16.12;;;9.28;;
22435;SDS011;11385;50.822;4.324;2023-07-20T04:22:49;20.65;;;10.23;;
22435;SDS011;11385;50.822;4.324;2023-07-20T04:25:17;19.73;;;10.48;;
22435;SDS011;11385;50.822;4.324;2023-07-20T04:27:44;19.32;;;9.25;;
22435;SDS011;11385;50.822;4.324;2023-07-20T04:30:11;20.80;;;10.20;;
22435;SDS011;11385;50.822;4.324;2023-07-20T04:32:39;17.30;;;10.60;;
22435;SDS011;11385;50.822;4.324;2023-07-20T04:35:08;16.25;;;10.60;;
22435;SDS011;11385;50.822;4.324;2023-07-20T04:37:35;16.48;;;10.18;;
22435;SDS011;11385;50.822;4.324;2023-07-20T04:40:01;19.92;;;10.23;;
22435;SDS011;11385;50.822;4.324;2023-07-20T04:42:29;18.57;;;10.32;;
22435;SDS011;11385;50.822;4.324;2023-07-20T04:44:55;17.32;;;9.98;;
22435;SDS011;11385;50.822;4.324;2023-07-20T04:47:22;18.90;;;10.43;;
22435;SDS011;11385;50.822;4.324;2023-07-20T04:49:48;18.80;;;10.43;;
22435;SDS011;11385;50.822;4.324;2023-07-20T04:52:15;19.70;;;10.15;;
22435;SDS011;11385;50.822;4.324;2023-07-20T04:54:42;18.35;;;9.98;;
22435;SDS011;11385;50.822;4.324;2023-07-20T04:57:10;17.50;;;9.93;;
22435;SDS011;11385;50.822;4.324;2023-07-20T04:59:38;16.57;;;10.15;;
22435;SDS011;11385;50.822;4.324;2023-07-20T05:02:04;17.75;;;10.65;;
22435;SDS011;11385;50.822;4.324;2023-07-20T05:04:31;19.82;;;10.65;;
22435;SDS011;11385;50.822;4.324;2023-07-20T05:06:58;20.32;;;11.20;;
22435;SDS011;11385;50.822;4.324;2023-07-20T05:09:24;17.65;;;10.45;;
22435;SDS011;11385;50.822;4.324;2023-07-20T05:11:51;19.73;;;10.50;;
22435;SDS011;11385;50.822;4.324;2023-07-20T05:14:18;16.05;;;9.83;;
22435;SDS011;11385;50.822;4.324;2023-07-20T05:16:44;18.50;;;10.23;;
22435;SDS011;11385;50.822;4.324;2023-07-20T05:19:11;18.85;;;10.55;;
22435;SDS011;11385;50.822;4.324;2023-07-20T05:21:37;15.85;;;10.23;;
22435;SDS011;11385;50.822;4.324;2023-07-20T05:24:05;17.85;;;10.25;;
22435;SDS011;11385;50.822;4.324;2023-07-20T05:26:32;17.67;;;10.10;;
22435;SDS011;11385;50.822;4.324;2023-07-20T05:29:00;17.77;;;10.80;;
22435;SDS011;11385;50.822;4.324;2023-07-20T05:31:26;20.62;;;11.90;;
22435;SDS011;11385;50.822;4.324;2023-07-20T05:33:56;21.75;;;10.72;;
22435;SDS011;11385;50.822;4.324;2023-07-20T05:36:24;15.90;;;10.55;;
22435;SDS011;11385;50.822;4.324;2023-07-20T05:38:51;17.92;;;10.43;;
22435;SDS011;11385;50.822;4.324;2023-07-20T05:41:17;19.07;;;11.20;;
22435;SDS011;11385;50.822;4.324;2023-07-20T05:43:44;21.27;;;10.82;;
22435;SDS011;11385;50.822;4.324;2023-07-20T05:46:11;21.60;;;11.38;;
22435;SDS011;11385;50.822;4.324;2023-07-20T05:48:37;20.30;;;11.88;;
22435;SDS011;11385;50.822;4.324;2023-07-20T05:51:04;19.45;;;11.65;;
22435;SDS011;11385;50.822;4.324;2023-07-20T05:53:31;18.02;;;11.22;;
22435;SDS011;11385;50.822;4.324;2023-07-20T05:55:57;19.85;;;11.10;;
22435;SDS011;11385;50.822;4.324;2023-07-20T05:58:24;18.85;;;11.18;;
22435;SDS011;11385;50.822;4.324;2023-07-20T06:00:50;19.67;;;11.15;;
22435;SDS011;11385;50.822;4.324;2023-07-20T06:03:17;17.00;;;10.88;;
22435;SDS011;11385;50.822;4.324;2023-07-20T06:05:45;18.25;;;11.70;;
22435;SDS011;11385;50.822;4.324;2023-07-20T06:08:12;15.70;;;10.35;;
22435;SDS011;11385;50.822;4.324;2023-07-20T06:10:38;23.70;;;12.28;;
22435;SDS011;11385;50.822;4.324;2023-07-20T06:13:05;18.35;;;11.22;;
22435;SDS011;11385;50.822;4.324;2023-07-20T06:15:32;18.55;;;11.50;;
22435;SDS011;11385;50.822;4.324;2023-07-20T06:18:01;26.55;;;17.82;;
22435;SDS011;11385;50.822;4.324;2023-07-20T06:20:29;16.70;;;11.53;;
22435;SDS011;11385;50.822;4.324;2023-07-20T06:22:56;18.85;;;10.95;;
22435;SDS011;11385;50.822;4.324;2023-07-20T06:25:23;16.62;;;11.73;;
22435;SDS011;11385;50.822;4.324;2023-07-20T06:27:50;17.37;;;10.55;;
22435;SDS011;11385;50.822;4.324;2023-07-20T06:30:18;15.58;;;10.93;;
22435;SDS011;11385;50.822;4.324;2023-07-20T06:32:44;21.90;;;14.63;;
22435;SDS011;11385;50.822;4.324;2023-07-20T06:35:11;20.23;;;11.33;;
22435;SDS011;11385;50.822;4.324;2023-07-20T06:37:38;20.37;;;11.18;;
22435;SDS011;11385;50.822;4.324;2023-07-20T06:40:05;16.48;;;11.12;;
22435;SDS011;11385;50.822;4.324;2023-07-20T06:42:34;17.50;;;11.25;;
22435;SDS011;11385;50.822;4.324;2023-07-20T06:45:01;17.27;;;11.05;;
22435;SDS011;11385;50.822;4.324;2023-07-20T06:47:28;17.48;;;10.58;;
22435;SDS011;11385;50.822;4.324;2023-07-20T06:49:54;15.75;;;10.95;;
22435;SDS011;11385;50.822;4.324;2023-07-20T06:52:21;14.15;;;9.85;;
22435;SDS011;11385;50.822;4.324;2023-07-20T06:54:48;14.47;;;9.60;;
22435;SDS011;11385;50.822;4.324;2023-07-20T06:57:14;13.72;;;9.48;;
22435;SDS011;11385;50.822;4.324;2023-07-20T06:59:41;13.10;;;8.88;;
22435;SDS011;11385;50.822;4.324;2023-07-20T07:02:08;14.63;;;8.50;;
22435;SDS011;11385;50.822;4.324;2023-07-20T07:04:34;17.57;;;8.60;;
22435;SDS011;11385;50.822;4.324;2023-07-20T07:07:01;12.65;;;7.80;;
22435;SDS011;11385;50.822;4.324;2023-07-20T07:09:29;14.95;;;7.55;;
22435;SDS011;11385;50.822;4.324;2023-07-20T07:11:55;12.47;;;7.50;;
22435;SDS011;11385;50.822;4.324;2023-07-20T07:14:23;13.10;;;6.92;;
22435;SDS011;11385;50.822;4.324;2023-07-20T07:16:49;12.23;;;6.85;;
22435;SDS011;11385;50.822;4.324;2023-07-20T07:19:16;10.25;;;5.85;;
22435;SDS011;11385;50.822;4.324;2023-07-20T07:21:43;10.40;;;4.87;;
22435;SDS011;11385;50.822;4.324;2023-07-20T07:24:09;7.10;;;5.05;;
22435;SDS011;11385;50.822;4.324;2023-07-20T07:26:36;7.87;;;4.47;;
22435;SDS011;11385;50.822;4.324;2023-07-20T07:29:04;10.68;;;4.65;;
22435;SDS011;11385;50.822;4.324;2023-07-20T07:31:33;7.47;;;4.58;;
22435;SDS011;11385;50.822;4.324;2023-07-20T07:34:02;7.95;;;3.90;;
22435;SDS011;11385;50.822;4.324;2023-07-20T07:36:30;5.58;;;3.35;;
22435;SDS011;11385;50.822;4.324;2023-07-20T07:38:57;8.30;;;3.62;;
22435;SDS011;11385;50.822;4.324;2023-07-20T07:41:24;6.47;;;3.55;;
22435;SDS011;11385;50.822;4.324;2023-07-20T07:43:51;8.23;;;3.77;;
22435;SDS011;11385;50.822;4.324;2023-07-20T07:46:17;7.00;;;2.95;;
22435;SDS011;11385;50.822;4.324;2023-07-20T07:48:44;6.42;;;3.40;;
22435;SDS011;11385;50.822;4.324;2023-07-20T07:51:10;5.08;;;2.77;;
22435;SDS011;11385;50.822;4.324;2023-07-20T07:53:39;5.15;;;3.12;;
22435;SDS011;11385;50.822;4.324;2023-07-20T07:56:06;6.55;;;2.30;;
22435;SDS011;11385;50.822;4.324;2023-07-20T07:58:34;6.83;;;2.52;;
22435;SDS011;11385;50.822;4.324;2023-07-20T08:01:00;6.35;;;2.33;;
22435;SDS011;11385;50.822;4.324;2023-07-20T08:03:27;3.67;;;2.00;;
22435;SDS011;11385;50.822;4.324;2023-07-20T08:05:54;3.33;;;1.82;;
22435;SDS011;11385;50.822;4.324;2023-07-20T08:08:22;3.67;;;2.10;;
22435;SDS011;11385;50.822;4.324;2023-07-20T08:10:49;4.35;;;2.10;;
22435;SDS011;11385;50.822;4.324;2023-07-20T08:13:18;8.78;;;3.22;;
22435;SDS011;11385;50.822;4.324;2023-07-20T08:15:48;4.97;;;2.70;;
22435;SDS011;11385;50.822;4.324;2023-07-20T08:18:16;6.72;;;2.67;;
22435;SDS011;11385;50.822;4.324;2023-07-20T08:20:43;6.87;;;2.62;;
22435;SDS011;11385;50.822;4.324;2023-07-20T08:23:10;4.40;;;2.15;;
22435;SDS011;11385;50.822;4.324;2023-07-20T08:25:37;4.95;;;2.17;;
22435;SDS011;11385;50.822;4.324;2023-07-20T08:28:06;5.08;;;2.52;;
22435;SDS011;11385;50.822;4.324;2023-07-20T08:30:40;4.70;;;2.02;;
22435;SDS011;11385;50.822;4.324;2023-07-20T08:33:09;5.95;;;2.12;;
22435;SDS011;11385;50.822;4.324;2023-07-20T08:35:38;5.20;;;2.05;;
22435;SDS011;11385;50.822;4.324;2023-07-20T08:38:05;6.00;;;2.08;;
22435;SDS011;11385;50.822;4.324;2023-07-20T08:40:33;3.00;;;2.02;;
22435;SDS011;11385;50.822;4.324;2023-07-20T08:43:10;11.10;;;2.10;;
22435;SDS011;11385;50.822;4.324;2023-07-20T08:45:39;5.22;;;2.20;;
22435;SDS011;11385;50.822;4.324;2023-07-20T08:48:07;5.45;;;1.67;;
22435;SDS011;11385;50.822;4.324;2023-07-20T08:50:35;7.58;;;2.30;;
22435;SDS011;11385;50.822;4.324;2023-07-20T08:53:02;3.98;;;1.70;;
22435;SDS011;11385;50.822;4.324;2023-07-20T08:55:29;3.47;;;1.80;;
22435;SDS011;11385;50.822;4.324;2023-07-20T08:57:58;4.08;;;1.50;;
22435;SDS011;11385;50.822;4.324;2023-07-20T09:00:25;3.52;;;1.20;;
22435;SDS011;11385;50.822;4.324;2023-07-20T09:02:55;3.00;;;0.93;;
22435;SDS011;11385;50.822;4.324;2023-07-20T09:05:22;3.40;;;1.12;;
22435;SDS011;11385;50.822;4.324;2023-07-20T09:07:51;2.83;;;1.10;;
22435;SDS011;11385;50.822;4.324;2023-07-20T09:10:20;3.40;;;1.00;;
22435;SDS011;11385;50.822;4.324;2023-07-20T09:12:47;11.48;;;5.33;;
22435;SDS011;11385;50.822;4.324;2023-07-20T09:15:15;4.00;;;1.87;;
22435;SDS011;11385;50.822;4.324;2023-07-20T09:17:47;3.45;;;1.70;;
22435;SDS011;11385;50.822;4.324;2023-07-20T09:20:16;3.85;;;1.17;;
22435;SDS011;11385;50.822;4.324;2023-07-20T09:22:44;6.80;;;4.00;;
22435;SDS011;11385;50.822;4.324;2023-07-20T09:25:12;4.28;;;2.10;;
22435;SDS011;11385;50.822;4.324;2023-07-20T09:27:41;5.80;;;2.02;;
22435;SDS011;11385;50.822;4.324;2023-07-20T09:30:09;5.62;;;2.47;;
22435;SDS011;11385;50.822;4.324;2023-07-20T09:32:39;3.22;;;1.60;;
22435;SDS011;11385;50.822;4.324;2023-07-20T09:35:13;6.08;;;2.30;;
22435;SDS011;11385;50.822;4.324;2023-07-20T09:40:20;3.12;;;1.20;;
22435;SDS011;11385;50.822;4.324;2023-07-20T09:42:47;3.52;;;1.20;;
22435;SDS011;11385;50.822;4.324;2023-07-20T09:45:16;4.97;;;1.52;;
22435;SDS011;11385;50.822;4.324;2023-07-20T09:47:43;3.50;;;1.30;;
22435;SDS011;11385;50.822;4.324;2023-07-20T09:50:09;2.33;;;0.80;;
22435;SDS011;11385;50.822;4.324;2023-07-20T09:52:37;3.75;;;0.80;;
22435;SDS011;11385;50.822;4.324;2023-07-20T09:55:07;3.05;;;1.55;;
22435;SDS011;11385;50.822;4.324;2023-07-20T09:57:35;2.87;;;1.37;;
22435;SDS011;11385;50.822;4.324;2023-07-20T10:00:04;3.77;;;1.40;;
22435;SDS011;11385;50.822;4.324;2023-07-20T10:02:37;3.10;;;1.22;;
22435;SDS011;11385;50.822;4.324;2023-07-20T10:05:10;2.12;;;1.00;;
22435;SDS011;11385;50.822;4.324;2023-07-20T10:07:43;3.22;;;0.95;;
22435;SDS011;11385;50.822;4.324;2023-07-20T10:10:15;2.10;;;0.80;;
22435;SDS011;11385;50.822;4.324;2023-07-20T10:12:44;2.87;;;1.10;;
22435;SDS011;11385;50.822;4.324;2023-07-20T10:15:19;3.40;;;0.90;;
22435;SDS011;11385;50.822;4.324;2023-07-20T10:17:52;3.30;;;0.98;;
22435;SDS011;11385;50.822;4.324;2023-07-20T10:20:23;1.40;;;0.70;;
22435;SDS011;11385;50.822;4.324;2023-07-20T10:22:52;2.42;;;0.85;;
22435;SDS011;11385;50.822;4.324;2023-07-20T10:25:22;2.58;;;1.00;;
22435;SDS011;11385;50.822;4.324;2023-07-20T10:27:49;2.22;;;0.95;;
22435;SDS011;11385;50.822;4.324;2023-07-20T10:30:17;2.12;;;1.00;;
22435;SDS011;11385;50.822;4.324;2023-07-20T10:32:45;2.17;;;1.00;;
22435;SDS011;11385;50.822;4.324;2023-07-20T10:35:15;3.87;;;0.85;;
22435;SDS011;11385;50.822;4.324;2023-07-20T10:37:47;2.50;;;1.00;;
22435;SDS011;11385;50.822;4.324;2023-07-20T10:42:55;1.82;;;1.17;;
22435;SDS011;11385;50.822;4.324;2023-07-20T10:45:39;2.80;;;1.40;;
22435;SDS011;11385;50.822;4.324;2023-07-20T10:48:13;3.08;;;1.45;;
22435;SDS011;11385;50.822;4.324;2023-07-20T10:50:42;2.75;;;1.57;;
22435;SDS011;11385;50.822;4.324;2023-07-20T10:53:10;2.52;;;0.98;;
22435;SDS011;11385;50.822;4.324;2023-07-20T10:55:39;2.37;;;1.10;;
22435;SDS011;11385;50.822;4.324;2023-07-20T10:58:07;4.20;;;1.40;;
22435;SDS011;11385;50.822;4.324;2023-07-20T11:00:38;5.20;;;1.90;;
22435;SDS011;11385;50.822;4.324;2023-07-20T11:03:06;3.55;;;1.30;;
22435;SDS011;11385;50.822;4.324;2023-07-20T11:05:33;5.08;;;1.47;;
22435;SDS011;11385;50.822;4.324;2023-07-20T11:08:04;2.65;;;1.32;;
22435;SDS011;11385;50.822;4.324;2023-07-20T11:10:32;3.02;;;1.80;;
22435;SDS011;11385;50.822;4.324;2023-07-20T11:16:03;2.58;;;1.75;;
22435;SDS011;11385;50.822;4.324;2023-07-20T11:18:32;3.30;;;2.02;;
22435;SDS011;11385;50.822;4.324;2023-07-20T11:21:02;3.40;;;2.25;;
22435;SDS011;11385;50.822;4.324;2023-07-20T11:23:29;3.72;;;2.58;;
22435;SDS011;11385;50.822;4.324;2023-07-20T11:25:57;5.25;;;2.70;;
22435;SDS011;11385;50.822;4.324;2023-07-20T11:28:25;3.70;;;2.12;;
22435;SDS011;11385;50.822;4.324;2023-07-20T11:30:54;4.17;;;2.55;;
22435;SDS011;11385;50.822;4.324;2023-07-20T11:33:21;5.58;;;2.50;;
22435;SDS011;11385;50.822;4.324;2023-07-20T11:35:48;5.15;;;2.45;;
22435;SDS011;11385;50.822;4.324;2023-07-20T11:38:18;4.10;;;2.70;;
22435;SDS011;11385;50.822;4.324;2023-07-20T11:40:45;4.10;;;2.08;;
22435;SDS011;11385;50.822;4.324;2023-07-20T11:43:13;5.85;;;1.85;;
22435;SDS011;11385;50.822;4.324;2023-07-20T11:45:40;3.75;;;1.98;;
22435;SDS011;11385;50.822;4.324;2023-07-20T11:48:07;3.70;;;2.20;;
22435;SDS011;11385;50.822;4.324;2023-07-20T11:50:39;4.83;;;2.45;;
22435;SDS011;11385;50.822;4.324;2023-07-20T11:53:06;4.20;;;2.08;;
22435;SDS011;11385;50.822;4.324;2023-07-20T11:55:33;4.22;;;2.72;;
22435;SDS011;11385;50.822;4.324;2023-07-20T11:58:01;4.00;;;2.40;;
22435;SDS011;11385;50.822;4.324;2023-07-20T12:00:29;7.37;;;2.72;;
22435;SDS011;11385;50.822;4.324;2023-07-20T12:02:56;3.58;;;2.30;;
22435;SDS011;11385;50.822;4.324;2023-07-20T12:05:23;4.47;;;2.15;;
22435;SDS011;11385;50.822;4.324;2023-07-20T12:07:49;5.28;;;2.30;;
22435;SDS011;11385;50.822;4.324;2023-07-20T12:10:23;4.87;;;2.10;;
22435;SDS011;11385;50.822;4.324;2023-07-20T12:12:51;3.77;;;2.45;;
22435;SDS011;11385;50.822;4.324;2023-07-20T12:15:20;4.22;;;2.55;;
22435;SDS011;11385;50.822;4.324;2023-07-20T12:17:50;4.28;;;2.30;;
22435;SDS011;11385;50.822;4.324;2023-07-20T12:20:24;4.45;;;2.40;;
22435;SDS011;11385;50.822;4.324;2023-07-20T12:23:09;4.70;;;2.67;;
22435;SDS011;11385;50.822;4.324;2023-07-20T12:25:37;4.85;;;2.50;;
22435;SDS011;11385;50.822;4.324;2023-07-20T12:28:06;2.83;;;2.27;;
22435;SDS011;11385;50.822;4.324;2023-07-20T12:30:34;3.37;;;2.40;;
22435;SDS011;11385;50.822;4.324;2023-07-20T12:33:02;5.12;;;2.33;;
22435;SDS011;11385;50.822;4.324;2023-07-20T12:35:30;3.58;;;2.30;;
22435;SDS011;11385;50.822;4.324;2023-07-20T12:37:57;3.65;;;2.10;;
22435;SDS011;11385;50.822;4.324;2023-07-20T12:40:24;5.37;;;2.20;;
22435;SDS011;11385;50.822;4.324;2023-07-20T12:42:51;3.87;;;2.30;;
22435;SDS011;11385;50.822;4.324;2023-07-20T12:45:18;4.08;;;1.90;;
22435;SDS011;11385;50.822;4.324;2023-07-20T12:47:45;3.70;;;2.33;;
22435;SDS011;11385;50.822;4.324;2023-07-20T12:50:11;3.12;;;1.92;;
22435;SDS011;11385;50.822;4.324;2023-07-20T12:52:39;4.50;;;2.20;;
22435;SDS011;11385;50.822;4.324;2023-07-20T12:55:07;4.05;;;1.90;;
22435;SDS011;11385;50.822;4.324;2023-07-20T12:57:35;4.40;;;1.70;;
22435;SDS011;11385;50.822;4.324;2023-07-20T13:00:03;3.65;;;2.00;;
22435;SDS011;11385;50.822;4.324;2023-07-20T13:02:33;3.83;;;2.20;;
22435;SDS011;11385;50.822;4.324;2023-07-20T13:05:01;8.45;;;2.22;;
22435;SDS011;11385;50.822;4.324;2023-07-20T13:07:29;3.02;;;1.98;;
22435;SDS011;11385;50.822;4.324;2023-07-20T13:09:58;3.27;;;1.87;;
22435;SDS011;11385;50.822;4.324;2023-07-20T13:12:27;3.35;;;1.95;;
22435;SDS011;11385;50.822;4.324;2023-07-20T13:14:55;3.92;;;1.95;;
22435;SDS011;11385;50.822;4.324;2023-07-20T13:17:22;3.55;;;2.20;;
22435;SDS011;11385;50.822;4.324;2023-07-20T13:19:49;4.25;;;2.60;;
22435;SDS011;11385;50.822;4.324;2023-07-20T13:22:16;3.60;;;1.95;;
22435;SDS011;11385;50.822;4.324;2023-07-20T13:24:44;4.05;;;2.30;;
22435;SDS011;11385;50.822;4.324;2023-07-20T13:27:15;4.85;;;2.05;;
22435;SDS011;11385;50.822;4.324;2023-07-20T13:29:42;4.20;;;2.30;;
22435;SDS011;11385;50.822;4.324;2023-07-20T13:32:09;2.92;;;1.80;;
22435;SDS011;11385;50.822;4.324;2023-07-20T13:34:36;4.58;;;2.25;;
22435;SDS011;11385;50.822;4.324;2023-07-20T13:37:03;4.58;;;2.22;;
22435;SDS011;11385;50.822;4.324;2023-07-20T13:39:30;3.08;;;1.90;;
22435;SDS011;11385;50.822;4.324;2023-07-20T13:41:56;5.87;;;1.80;;
22435;SDS011;11385;50.822;4.324;2023-07-20T13:44:23;4.22;;;1.90;;
22435;SDS011;11385;50.822;4.324;2023-07-20T13:46:49;3.33;;;1.45;;
22435;SDS011;11385;50.822;4.324;2023-07-20T13:49:16;3.05;;;1.42;;
22435;SDS011;11385;50.822;4.324;2023-07-20T13:51:43;3.05;;;1.50;;
22435;SDS011;11385;50.822;4.324;2023-07-20T13:54:09;4.85;;;1.55;;
22435;SDS011;11385;50.822;4.324;2023-07-20T13:56:37;2.40;;;1.30;;
22435;SDS011;11385;50.822;4.324;2023-07-20T13:59:04;3.42;;;1.30;;
22435;SDS011;11385;50.822;4.324;2023-07-20T14:01:30;5.92;;;1.75;;
22435;SDS011;11385;50.822;4.324;2023-07-20T14:03:59;6.30;;;2.00;;
22435;SDS011;11385;50.822;4.324;2023-07-20T14:06:27;6.42;;;1.87;;
22435;SDS011;11385;50.822;4.324;2023-07-20T14:08:57;4.03;;;1.90;;
22435;SDS011;11385;50.822;4.324;2023-07-20T14:11:24;4.10;;;1.50;;
22435;SDS011;11385;50.822;4.324;2023-07-20T14:13:51;4.37;;;1.55;;
22435;SDS011;11385;50.822;4.324;2023-07-20T14:16:20;4.05;;;1.70;;
22435;SDS011;11385;50.822;4.324;2023-07-20T14:18:48;2.80;;;1.42;;
22435;SDS011;11385;50.822;4.324;2023-07-20T14:21:16;3.90;;;1.60;;
22435;SDS011;11385;50.822;4.324;2023-07-20T14:23:46;5.05;;;1.80;;
22435;SDS011;11385;50.822;4.324;2023-07-20T14:28:41;4.90;;;1.72;;
22435;SDS011;11385;50.822;4.324;2023-07-20T14:31:08;3.27;;;2.00;;
22435;SDS011;11385;50.822;4.324;2023-07-20T14:33:34;3.98;;;1.70;;
22435;SDS011;11385;50.822;4.324;2023-07-20T14:36:01;3.80;;;1.55;;
22435;SDS011;11385;50.822;4.324;2023-07-20T14:38:28;4.05;;;1.70;;
22435;SDS011;11385;50.822;4.324;2023-07-20T14:40:57;5.37;;;1.87;;
22435;SDS011;11385;50.822;4.324;2023-07-20T14:43:23;3.65;;;1.90;;
22435;SDS011;11385;50.822;4.324;2023-07-20T14:45:50;4.53;;;2.00;;
22435;SDS011;11385;50.822;4.324;2023-07-20T14:48:17;2.98;;;1.60;;
22435;SDS011;11385;50.822;4.324;2023-07-20T14:50:43;6.37;;;2.22;;
22435;SDS011;11385;50.822;4.324;2023-07-20T14:53:13;4.72;;;1.52;;
22435;SDS011;11385;50.822;4.324;2023-07-20T14:55:42;3.70;;;1.62;;
22435;SDS011;11385;50.822;4.324;2023-07-20T14:58:10;4.37;;;1.80;;
22435;SDS011;11385;50.822;4.324;2023-07-20T15:00:37;3.30;;;1.98;;
22435;SDS011;11385;50.822;4.324;2023-07-20T15:03:04;6.20;;;2.60;;